Time;durP1;ratioP1;P1;durP2;ratioP2;P2;SDS_P1;SDS_P2;PMS_P1;PMS_P2;Temp;Humidity;BMP_temperature;BMP_pressure;BME280_temperature;BME280_humidity;BME280_pressure;Samples;Min_cycle;Max_cycle;Signal;HPM_P1;HPM_P2
2022/09/29 00:00:15;;;;;;;27.90;25.70;;;;;;;;;;5094065;28;20430;-79
2022/09/29 00:02:42;;;;;;;29.10;26.73;;;;;;;;;;5093670;28;20446;-79
2022/09/29 00:05:09;;;;;;;26.93;24.93;;;;;;;;;;5093348;28;20450;-79
2022/09/29 00:07:39;;;;;;;28.83;26.33;;;;;;;;;;5093758;28;20931;-79
2022/09/29 00:10:06;;;;;;;27.93;25.63;;;;;;;;;;5093897;28;20564;-79
2022/09/29 00:12:34;;;;;;;28.57;26.47;;;;;;;;;;5093458;28;20442;-78
2022/09/29 00:15:01;;;;;;;28.97;26.67;;;;;;;;;;5095479;28;20938;-78
2022/09/29 00:17:28;;;;;;;27.67;25.57;;;;;;;;;;5099246;28;20482;-78
2022/09/29 00:19:55;;;;;;;28.93;26.63;;;;;;;;;;5100457;28;20418;-79
2022/09/29 00:22:23;;;;;;;27.30;24.80;;;;;;;;;;5097322;28;20451;-79
2022/09/29 00:24:51;;;;;;;27.90;25.63;;;;;;;;;;5096945;28;20210;-79
2022/09/29 00:27:20;;;;;;;28.10;25.80;;;;;;;;;;5097746;28;20448;-78
2022/09/29 00:29:47;;;;;;;28.33;26.03;;;;;;;;;;5097303;28;20451;-79
2022/09/29 00:32:15;;;;;;;27.85;25.75;;;;;;;;;;5096344;28;20449;-78
2022/09/29 00:34:42;;;;;;;28.08;26.08;;;;;;;;;;5097085;28;20232;-78
2022/09/29 00:37:09;;;;;;;28.37;26.27;;;;;;;;;;5097246;28;20206;-79
2022/09/29 00:39:37;;;;;;;30.23;27.53;;;;;;;;;;5096991;28;20482;-78
2022/09/29 00:42:06;;;;;;;29.23;26.57;;;;;;;;;;5096580;28;20427;-79
2022/09/29 00:44:52;;;;;;;29.08;26.58;;;;;;;;;;5097030;28;20412;-78
2022/09/29 00:47:20;;;;;;;28.67;26.37;;;;;;;;;;5097237;28;20558;-78
2022/09/29 00:49:49;;;;;;;26.80;24.80;;;;;;;;;;5096801;28;20444;-79
2022/09/29 00:52:20;;;;;;;29.03;26.73;;;;;;;;;;5095935;28;20532;-79
2022/09/29 00:54:49;;;;;;;28.83;26.43;;;;;;;;;;5096728;28;20915;-79
2022/09/29 00:57:21;;;;;;;28.47;26.20;;;;;;;;;;5097386;28;20463;-79
2022/09/29 00:59:50;;;;;;;28.07;25.87;;;;;;;;;;5097280;28;20473;-79
2022/09/29 01:02:18;;;;;;;29.38;26.67;;;;;;;;;;5096019;28;20467;-80
2022/09/29 01:04:46;;;;;;;28.40;26.10;;;;;;;;;;5097053;28;20190;-79
2022/09/29 01:07:14;;;;;;;27.30;25.37;;;;;;;;;;5096722;28;20809;-78
2022/09/29 01:09:42;;;;;;;26.87;24.97;;;;;;;;;;5097291;28;20458;-79
2022/09/29 01:12:09;;;;;;;28.53;26.13;;;;;;;;;;5096213;28;20471;-79
2022/09/29 01:14:38;;;;;;;29.55;27.05;;;;;;;;;;5096334;28;20480;-78
2022/09/29 01:17:06;;;;;;;28.30;26.20;;;;;;;;;;5096966;28;20217;-79
2022/09/29 01:19:40;;;;;;;381.75;128.52;;;;;;;;;;5096962;28;20480;-79
2022/09/29 01:22:11;;;;;;;406.10;134.32;;;;;;;;;;5095915;28;20234;-79
2022/09/29 01:24:55;;;;;;;28.20;26.00;;;;;;;;;;5096478;28;20639;-78
2022/09/29 01:27:34;;;;;;;26.95;24.90;;;;;;;;;;5095895;28;20455;-78
2022/09/29 01:30:13;;;;;;;28.83;26.73;;;;;;;;;;5096365;28;20186;-78
2022/09/29 01:32:48;;;;;;;28.73;26.42;;;;;;;;;;5095773;28;20740;-78
2022/09/29 01:35:17;;;;;;;28.73;26.43;;;;;;;;;;5096575;28;20544;-78
2022/09/29 01:37:50;;;;;;;28.20;26.00;;;;;;;;;;5096534;28;20429;-79
2022/09/29 01:40:19;;;;;;;27.63;25.53;;;;;;;;;;5096505;28;20437;-78
2022/09/29 01:42:51;;;;;;;27.53;25.53;;;;;;;;;;5096011;28;20809;-79
2022/09/29 01:45:22;;;;;;;28.53;26.60;;;;;;;;;;5095891;28;20479;-79
2022/09/29 01:47:53;;;;;;;31.60;29.10;;;;;;;;;;5096349;28;20451;-79
2022/09/29 01:50:23;;;;;;;27.63;25.55;;;;;;;;;;5096421;28;20766;-79
2022/09/29 01:52:53;;;;;;;28.97;26.93;;;;;;;;;;5095721;28;20307;-79
2022/09/29 01:55:22;;;;;;;27.77;25.73;;;;;;;;;;5095950;28;20459;-79
2022/09/29 01:57:51;;;;;;;26.95;25.08;;;;;;;;;;5095968;28;20208;-78
2022/09/29 02:00:19;;;;;;;26.67;24.80;;;;;;;;;;5095589;28;20233;-78
2022/09/29 02:02:48;;;;;;;27.77;25.80;;;;;;;;;;5094910;28;20233;-79
2022/09/29 02:05:20;;;;;;;26.60;24.80;;;;;;;;;;5095760;28;20456;-78
2022/09/29 02:07:48;;;;;;;26.65;24.70;;;;;;;;;;5095647;28;20896;-78
2022/09/29 02:10:19;;;;;;;27.90;25.90;;;;;;;;;;5095718;28;20212;-79
2022/09/29 02:12:47;;;;;;;26.88;24.90;;;;;;;;;;5095338;28;20475;-79
2022/09/29 02:15:19;;;;;;;26.70;24.77;;;;;;;;;;5094990;28;20207;-78
2022/09/29 02:17:48;;;;;;;27.15;25.13;;;;;;;;;;5095888;28;20190;-78
2022/09/29 02:20:17;;;;;;;28.45;26.35;;;;;;;;;;5095636;28;20224;-79
2022/09/29 02:22:44;;;;;;;29.75;27.10;;;;;;;;;;5094945;28;20585;-79
2022/09/29 02:25:12;;;;;;;26.90;24.90;;;;;;;;;;5095756;28;20227;-79
2022/09/29 02:27:40;;;;;;;27.87;25.87;;;;;;;;;;5095670;28;20797;-79
2022/09/29 02:30:08;;;;;;;26.02;24.13;;;;;;;;;;5095300;28;20453;-78
2022/09/29 02:32:36;;;;;;;27.73;25.63;;;;;;;;;;5094231;28;20247;-78
2022/09/29 02:35:04;;;;;;;27.87;25.80;;;;;;;;;;5094968;28;20209;-79
2022/09/29 02:37:42;;;;;;;28.73;26.13;;;;;;;;;;5094742;28;20451;-78
2022/09/29 02:40:19;;;;;;;28.67;26.45;;;;;;;;;;5094180;28;20208;-78
2022/09/29 02:42:54;;;;;;;28.90;26.65;;;;;;;;;;5094076;28;20231;-79
2022/09/29 02:45:29;;;;;;;26.45;24.55;;;;;;;;;;5094652;28;20218;-79
2022/09/29 02:48:09;;;;;;;28.30;26.05;;;;;;;;;;5094759;28;20187;-79
2022/09/29 02:50:41;;;;;;;26.77;24.92;;;;;;;;;;5094719;28;20184;-78
2022/09/29 02:53:14;;;;;;;374.77;119.32;;;;;;;;;;5093874;28;20697;-79
2022/09/29 02:55:44;;;;;;;382.52;107.93;;;;;;;;;;5094709;28;20204;-79
2022/09/29 02:58:14;;;;;;;324.42;103.25;;;;;;;;;;5095005;28;20208;-78
2022/09/29 03:00:42;;;;;;;105.35;93.15;;;;;;;;;;5094360;28;20236;-79
2022/09/29 03:03:10;;;;;;;323.90;116.63;;;;;;;;;;5094119;28;20233;-79
2022/09/29 03:05:37;;;;;;;72.78;66.80;;;;;;;;;;5094698;28;20209;-79
2022/09/29 03:08:04;;;;;;;76.18;70.07;;;;;;;;;;5094323;28;20205;-78
2022/09/29 03:10:33;;;;;;;99.60;76.90;;;;;;;;;;5094159;28;20206;-78
2022/09/29 03:13:00;;;;;;;147.70;102.97;;;;;;;;;;5093156;28;20700;-79
2022/09/29 03:15:28;;;;;;;390.15;111.78;;;;;;;;;;5094359;28;20228;-79
2022/09/29 03:17:57;;;;;;;382.48;117.68;;;;;;;;;;5094396;28;20206;-78
2022/09/29 03:20:24;;;;;;;355.15;120.18;;;;;;;;;;5094043;28;20278;-78
2022/09/29 03:22:52;;;;;;;342.77;113.18;;;;;;;;;;5093534;28;20315;-78
2022/09/29 03:25:21;;;;;;;258.27;109.32;;;;;;;;;;5094242;28;20217;-78
2022/09/29 03:27:49;;;;;;;251.88;118.57;;;;;;;;;;5094009;28;20316;-79
2022/09/29 03:30:17;;;;;;;89.63;81.88;;;;;;;;;;5094100;28;20634;-79
2022/09/29 03:32:44;;;;;;;85.82;77.88;;;;;;;;;;5093776;28;20233;-78
2022/09/29 03:35:12;;;;;;;99.75;90.28;;;;;;;;;;5095269;28;20208;-79
2022/09/29 03:37:39;;;;;;;97.88;88.00;;;;;;;;;;5095220;28;20210;-78
2022/09/29 03:40:07;;;;;;;93.18;84.15;;;;;;;;;;5094743;28;20225;-79
2022/09/29 03:42:34;;;;;;;96.57;86.03;;;;;;;;;;5094604;28;20235;-79
2022/09/29 03:45:04;;;;;;;97.32;88.22;;;;;;;;;;5095296;28;20289;-79
2022/09/29 03:47:31;;;;;;;175.10;90.70;;;;;;;;;;5095246;28;20208;-79
2022/09/29 03:49:59;;;;;;;311.95;113.55;;;;;;;;;;5095280;28;20271;-78
2022/09/29 03:52:26;;;;;;;347.35;124.70;;;;;;;;;;5097225;28;20233;-79
2022/09/29 03:54:53;;;;;;;200.50;101.95;;;;;;;;;;5098769;28;20205;-79
2022/09/29 03:57:21;;;;;;;380.80;134.80;;;;;;;;;;5099036;28;20220;-78
2022/09/29 03:59:48;;;;;;;330.13;114.75;;;;;;;;;;5098805;28;20580;-79
2022/09/29 04:02:18;;;;;;;247.70;99.78;;;;;;;;;;5098045;28;20883;-79
2022/09/29 04:04:46;;;;;;;84.28;77.03;;;;;;;;;;5097846;28;20244;-79
2022/09/29 04:07:13;;;;;;;83.38;75.57;;;;;;;;;;5098401;28;20206;-79
2022/09/29 04:09:41;;;;;;;77.55;70.20;;;;;;;;;;5098311;28;20197;-78
2022/09/29 04:12:08;;;;;;;97.15;87.38;;;;;;;;;;5097812;28;20255;-79
2022/09/29 04:14:36;;;;;;;83.93;76.65;;;;;;;;;;5097957;28;20213;-79
2022/09/29 04:17:03;;;;;;;445.15;164.75;;;;;;;;;;5098416;28;20212;-79
2022/09/29 04:19:32;;;;;;;386.70;107.53;;;;;;;;;;5098379;28;20703;-79
2022/09/29 04:21:59;;;;;;;331.75;139.30;;;;;;;;;;5097600;28;20201;-78
2022/09/29 04:24:26;;;;;;;205.18;95.18;;;;;;;;;;5097510;28;20205;-79
2022/09/29 04:26:54;;;;;;;248.25;115.82;;;;;;;;;;5098253;28;20236;-79
2022/09/29 04:29:21;;;;;;;425.40;126.60;;;;;;;;;;5098457;28;20208;-79
2022/09/29 04:31:49;;;;;;;419.52;138.05;;;;;;;;;;5097419;28;20739;-79
2022/09/29 04:34:16;;;;;;;295.95;102.72;;;;;;;;;;5097674;28;20204;-79
2022/09/29 04:36:45;;;;;;;293.70;127.65;;;;;;;;;;5097330;28;20308;-79
2022/09/29 04:39:12;;;;;;;390.65;165.18;;;;;;;;;;5098087;28;20221;-79
2022/09/29 04:41:40;;;;;;;340.55;155.13;;;;;;;;;;5097482;28;20225;-79
2022/09/29 04:44:07;;;;;;;256.40;109.43;;;;;;;;;;5097758;28;20282;-79
2022/09/29 04:46:35;;;;;;;468.77;145.52;;;;;;;;;;5098054;28;20216;-79
2022/09/29 04:49:02;;;;;;;436.65;132.73;;;;;;;;;;5097233;28;20205;-79
2022/09/29 04:51:30;;;;;;;193.80;100.75;;;;;;;;;;5097281;28;20209;-79
2022/09/29 04:53:59;;;;;;;263.52;121.18;;;;;;;;;;5097289;28;20316;-78
2022/09/29 04:56:30;;;;;;;398.92;126.05;;;;;;;;;;5097586;28;20232;-78
2022/09/29 04:58:58;;;;;;;384.58;116.18;;;;;;;;;;5097703;28;20612;-78
2022/09/29 05:01:25;;;;;;;322.60;103.88;;;;;;;;;;5097029;28;20216;-79
2022/09/29 05:03:53;;;;;;;323.73;115.10;;;;;;;;;;5095890;28;20253;-79
2022/09/29 05:06:20;;;;;;;385.75;115.65;;;;;;;;;;5097324;28;20209;-78
2022/09/29 05:08:47;;;;;;;375.73;115.38;;;;;;;;;;5097324;28;20205;-79
2022/09/29 05:11:16;;;;;;;403.45;125.88;;;;;;;;;;5096918;28;20885;-79
2022/09/29 05:13:44;;;;;;;410.83;128.07;;;;;;;;;;5097349;28;20233;-79
2022/09/29 05:16:11;;;;;;;370.33;119.95;;;;;;;;;;5097573;28;20206;-79
2022/09/29 05:18:38;;;;;;;457.63;174.90;;;;;;;;;;5097258;28;20224;-79
2022/09/29 05:21:06;;;;;;;427.40;130.75;;;;;;;;;;5096380;28;20227;-79
2022/09/29 05:23:34;;;;;;;265.65;101.40;;;;;;;;;;5096457;28;20719;-80
2022/09/29 05:26:02;;;;;;;390.77;122.13;;;;;;;;;;5097312;28;20232;-79
2022/09/29 05:28:30;;;;;;;27.45;25.25;;;;;;;;;;5096850;28;20241;-79
2022/09/29 05:31:01;;;;;;;29.55;26.55;;;;;;;;;;5095474;28;20201;-77
2022/09/29 05:33:29;;;;;;;87.53;80.47;;;;;;;;;;5095183;28;20260;-77
2022/09/29 05:35:57;;;;;;;28.08;25.80;;;;;;;;;;5095441;28;20205;-76
2022/09/29 05:38:24;;;;;;;94.97;85.50;;;;;;;;;;5095600;28;20201;-77
2022/09/29 05:40:51;;;;;;;54.75;50.17;;;;;;;;;;5095395;28;20241;-76
2022/09/29 05:43:19;;;;;;;26.13;24.15;;;;;;;;;;5095268;28;20238;-76
2022/09/29 05:45:47;;;;;;;101.78;89.65;;;;;;;;;;5095216;28;20572;-76
2022/09/29 05:48:15;;;;;;;183.60;100.20;;;;;;;;;;5095987;28;20205;-76
2022/09/29 05:50:42;;;;;;;295.73;118.85;;;;;;;;;;5095177;28;20201;-77
2022/09/29 05:53:10;;;;;;;136.07;73.13;;;;;;;;;;5094343;28;20260;-77
2022/09/29 05:55:37;;;;;;;281.75;111.32;;;;;;;;;;5095115;28;20696;-76
2022/09/29 05:58:05;;;;;;;58.00;38.75;;;;;;;;;;5095027;28;20204;-76
2022/09/29 06:00:32;;;;;;;185.27;100.70;;;;;;;;;;5094888;28;20233;-76
2022/09/29 06:03:02;;;;;;;26.52;24.48;;;;;;;;;;5094340;28;20225;-76
2022/09/29 06:05:29;;;;;;;26.90;24.83;;;;;;;;;;5094911;28;20210;-77
2022/09/29 06:07:57;;;;;;;27.40;24.98;;;;;;;;;;5094853;28;20668;-77
2022/09/29 06:10:24;;;;;;;26.55;24.55;;;;;;;;;;5094829;28;20661;-77
2022/09/29 06:12:52;;;;;;;26.57;24.33;;;;;;;;;;5093806;28;20696;-77
2022/09/29 06:15:20;;;;;;;27.80;25.52;;;;;;;;;;5094742;28;20451;-77
2022/09/29 06:17:47;;;;;;;27.92;25.52;;;;;;;;;;5094862;28;20197;-77
2022/09/29 06:20:17;;;;;;;27.27;25.17;;;;;;;;;;5094839;28;20225;-77
2022/09/29 06:22:44;;;;;;;26.92;24.63;;;;;;;;;;5093747;28;20490;-76
2022/09/29 06:25:12;;;;;;;29.10;26.77;;;;;;;;;;5094208;28;20676;-76
2022/09/29 06:27:39;;;;;;;26.43;24.53;;;;;;;;;;5090957;28;20443;-75
2022/09/29 06:30:07;;;;;;;29.67;27.02;;;;;;;;;;5093985;28;20861;-75
2022/09/29 06:32:34;;;;;;;29.05;26.40;;;;;;;;;;5084014;28;20222;-76
2022/09/29 06:37:48;;;;;;;28.92;26.42;;;;;;;;;;5094776;28;20408;-76
2022/09/29 06:40:15;;;;;;;32.05;29.13;;;;;;;;;;5094431;28;20225;-77
2022/09/29 06:42:43;;;;;;;29.73;27.23;;;;;;;;;;5093603;28;20258;-80
2022/09/29 06:45:10;;;;;;;29.23;26.70;;;;;;;;;;5094612;28;20209;-76
2022/09/29 06:47:38;;;;;;;28.65;26.35;;;;;;;;;;5094473;28;20212;-76
2022/09/29 06:50:05;;;;;;;29.03;26.70;;;;;;;;;;5094034;28;20210;-76
2022/09/29 06:52:33;;;;;;;28.20;26.00;;;;;;;;;;5093840;28;20501;-75
2022/09/29 06:55:02;;;;;;;30.00;27.57;;;;;;;;;;5094319;28;20455;-76
2022/09/29 06:57:29;;;;;;;29.00;26.50;;;;;;;;;;5093917;28;20962;-75
2022/09/29 06:59:56;;;;;;;30.70;27.95;;;;;;;;;;5093371;28;20487;-76
2022/09/29 07:02:24;;;;;;;29.53;27.13;;;;;;;;;;5093566;28;20229;-75
2022/09/29 07:04:52;;;;;;;29.83;27.33;;;;;;;;;;5093814;28;20442;-76
2022/09/29 07:07:19;;;;;;;29.70;27.20;;;;;;;;;;5093812;28;20207;-75
2022/09/29 07:09:46;;;;;;;27.65;25.40;;;;;;;;;;5093981;28;20569;-76
2022/09/29 07:12:15;;;;;;;30.03;27.43;;;;;;;;;;5092997;28;20225;-76
2022/09/29 07:14:42;;;;;;;29.07;26.77;;;;;;;;;;5094131;28;20472;-76
2022/09/29 07:17:12;;;;;;;29.33;26.93;;;;;;;;;;5094125;28;20445;-77
2022/09/29 07:19:39;;;;;;;30.63;28.23;;;;;;;;;;5094118;28;20449;-77
2022/09/29 07:22:08;;;;;;;33.10;29.73;;;;;;;;;;5092995;28;20440;-76
2022/09/29 07:24:36;;;;;;;31.20;28.23;;;;;;;;;;5093604;28;20403;-77
2022/09/29 07:27:03;;;;;;;30.77;28.10;;;;;;;;;;5093445;28;20895;-76
2022/09/29 07:29:33;;;;;;;28.70;26.50;;;;;;;;;;5093816;28;20479;-76
2022/09/29 07:32:01;;;;;;;32.53;29.00;;;;;;;;;;5093261;28;20871;-76
2022/09/29 07:34:28;;;;;;;31.67;28.90;;;;;;;;;;5093151;28;20468;-76
2022/09/29 07:36:56;;;;;;;31.80;28.63;;;;;;;;;;5093458;28;20237;-77
2022/09/29 07:39:23;;;;;;;29.70;27.30;;;;;;;;;;5093616;28;20271;-76
2022/09/29 07:41:50;;;;;;;28.52;26.20;;;;;;;;;;5092854;28;20481;-76
2022/09/29 07:44:18;;;;;;;27.23;25.02;;;;;;;;;;5093753;28;20207;-76
2022/09/29 07:46:48;;;;;;;28.90;26.60;;;;;;;;;;5093761;28;20212;-76
2022/09/29 07:49:16;;;;;;;30.80;28.10;;;;;;;;;;5093383;28;20469;-76
2022/09/29 07:51:43;;;;;;;32.33;29.00;;;;;;;;;;5092751;28;20543;-84
2022/09/29 07:54:10;;;;;;;26.63;24.43;;;;;;;;;;5093294;28;20472;-76
2022/09/29 07:56:38;;;;;;;28.10;25.97;;;;;;;;;;5093246;28;20444;-76
2022/09/29 07:59:05;;;;;;;29.87;27.30;;;;;;;;;;5093552;28;20452;-76
2022/09/29 08:01:34;;;;;;;28.27;25.87;;;;;;;;;;5092721;28;20848;-76
2022/09/29 08:04:03;;;;;;;27.87;25.77;;;;;;;;;;5092548;28;20503;-77
2022/09/29 08:06:30;;;;;;;29.43;27.13;;;;;;;;;;5093548;28;20816;-77
2022/09/29 08:08:57;;;;;;;29.73;26.93;;;;;;;;;;5093649;28;20448;-76
2022/09/29 08:11:25;;;;;;;29.47;27.07;;;;;;;;;;5092926;28;20444;-76
2022/09/29 08:13:53;;;;;;;28.47;26.17;;;;;;;;;;5093119;28;20475;-76
2022/09/29 08:16:20;;;;;;;27.63;25.33;;;;;;;;;;5093815;28;20500;-76
2022/09/29 08:18:49;;;;;;;30.07;27.67;;;;;;;;;;5093123;28;20448;-76
2022/09/29 08:21:18;;;;;;;28.80;26.30;;;;;;;;;;5092934;28;20571;-77
2022/09/29 08:23:45;;;;;;;35.77;32.47;;;;;;;;;;5094132;28;20483;-77
2022/09/29 08:26:14;;;;;;;30.17;27.57;;;;;;;;;;5094599;28;20456;-77
2022/09/29 08:28:42;;;;;;;30.97;28.40;;;;;;;;;;5094247;28;20497;-76
2022/09/29 08:31:10;;;;;;;32.60;29.30;;;;;;;;;;5093338;28;20439;-78
2022/09/29 08:33:37;;;;;;;32.10;29.30;;;;;;;;;;5094215;28;20472;-76
2022/09/29 08:36:13;;;;;;;34.53;31.43;;;;;;;;;;5094041;28;20422;-79
2022/09/29 08:38:45;;;;;;;37.17;32.80;;;;;;;;;;5095701;28;20498;-77
2022/09/29 08:41:19;;;;;;;36.90;33.07;;;;;;;;;;5097329;28;20474;-77
2022/09/29 08:43:49;;;;;;;34.47;31.47;;;;;;;;;;5098108;28;20467;-77
2022/09/29 08:46:20;;;;;;;38.50;34.90;;;;;;;;;;5097975;28;21045;-77
2022/09/29 08:48:48;;;;;;;34.90;31.50;;;;;;;;;;5097404;28;20480;-76
2022/09/29 08:51:22;;;;;;;35.27;32.00;;;;;;;;;;5096705;28;20474;-77
2022/09/29 08:53:54;;;;;;;33.63;30.47;;;;;;;;;;5097701;28;20446;-76
2022/09/29 08:56:21;;;;;;;33.50;30.30;;;;;;;;;;5096723;28;20452;-76
2022/09/29 08:58:48;;;;;;;38.90;34.95;;;;;;;;;;5096710;28;20475;-76
2022/09/29 09:01:21;;;;;;;36.60;33.43;;;;;;;;;;5096745;28;20697;-77
2022/09/29 09:04:07;;;;;;;34.47;31.20;;;;;;;;;;5097683;28;20446;-76
2022/09/29 09:06:41;;;;;;;32.40;29.30;;;;;;;;;;5096611;28;20406;-75
2022/09/29 09:09:19;;;;;;;34.47;31.47;;;;;;;;;;5097800;28;20432;-80
2022/09/29 09:11:54;;;;;;;37.77;34.37;;;;;;;;;;5098185;28;20433;-78
2022/09/29 09:14:30;;;;;;;36.40;33.00;;;;;;;;;;5095827;28;20473;-78
2022/09/29 09:17:02;;;;;;;36.47;33.07;;;;;;;;;;5096897;28;20498;-77
2022/09/29 09:19:54;;;;;;;37.20;33.30;;;;;;;;;;5096228;28;20448;-77
2022/09/29 09:22:22;;;;;;;36.03;32.57;;;;;;;;;;5071191;28;20466;-79
2022/09/29 09:24:55;;;;;;;34.60;31.33;;;;;;;;;;5096022;28;20479;-78
2022/09/29 09:27:25;;;;;;;34.20;31.00;;;;;;;;;;5095958;28;20438;-78
2022/09/29 09:29:58;;;;;;;34.60;31.10;;;;;;;;;;5095341;28;20456;-77
2022/09/29 09:32:27;;;;;;;37.67;29.97;;;;;;;;;;5095043;28;20470;-77
2022/09/29 09:34:57;;;;;;;30.90;28.30;;;;;;;;;;5095821;28;20422;-78
2022/09/29 09:37:26;;;;;;;31.43;28.37;;;;;;;;;;5095749;28;20444;-78
2022/09/29 09:39:59;;;;;;;31.93;28.83;;;;;;;;;;5095888;28;20427;-78
2022/09/29 09:42:27;;;;;;;27.20;24.97;;;;;;;;;;5094535;28;20492;-78
2022/09/29 09:44:58;;;;;;;28.53;25.97;;;;;;;;;;5095697;28;20452;-78
2022/09/29 09:47:27;;;;;;;29.60;26.83;;;;;;;;;;5095784;28;20421;-78
2022/09/29 09:49:57;;;;;;;30.47;27.83;;;;;;;;;;5094842;28;20452;-78
2022/09/29 09:52:28;;;;;;;30.73;28.13;;;;;;;;;;5094660;28;20480;-78
2022/09/29 09:54:59;;;;;;;27.53;25.43;;;;;;;;;;5095267;28;20445;-78
2022/09/29 09:57:56;;;;;;;27.13;24.93;;;;;;;;;;5095379;28;20440;-78
2022/09/29 10:00:25;;;;;;;28.67;26.43;;;;;;;;;;5033407;28;20462;-77
2022/09/29 10:02:54;;;;;;;28.80;26.47;;;;;;;;;;5080934;28;20463;-77
2022/09/29 10:05:23;;;;;;;29.87;27.27;;;;;;;;;;5094647;28;20550;-78
2022/09/29 10:07:51;;;;;;;28.43;26.17;;;;;;;;;;5095437;28;20459;-78
2022/09/29 10:10:21;;;;;;;26.43;24.60;;;;;;;;;;5095844;28;20427;-78
2022/09/29 10:12:50;;;;;;;28.63;26.50;;;;;;;;;;5094720;28;20994;-79
2022/09/29 10:15:21;;;;;;;28.00;25.73;;;;;;;;;;5094869;28;20463;-78
2022/09/29 10:17:50;;;;;;;26.80;24.60;;;;;;;;;;5095056;28;20460;-78
2022/09/29 10:20:29;;;;;;;25.60;23.77;;;;;;;;;;5095035;28;20422;-78
2022/09/29 10:23:08;;;;;;;26.13;24.10;;;;;;;;;;5094195;28;20459;-78
2022/09/29 10:25:37;;;;;;;26.40;24.50;;;;;;;;;;5094778;28;20417;-79
2022/09/29 10:28:06;;;;;;;27.70;25.80;;;;;;;;;;5094819;28;20777;-78
2022/09/29 10:30:34;;;;;;;26.17;24.27;;;;;;;;;;5094487;28;20525;-78
2022/09/29 10:33:04;;;;;;;25.43;23.20;;;;;;;;;;5094852;28;20472;-77
2022/09/29 10:35:34;;;;;;;24.03;22.43;;;;;;;;;;5094419;28;20426;-78
2022/09/29 10:38:02;;;;;;;26.93;24.93;;;;;;;;;;5094774;28;20468;-78
2022/09/29 10:40:30;;;;;;;28.07;25.93;;;;;;;;;;5094836;28;20448;-78
2022/09/29 10:42:59;;;;;;;28.00;26.00;;;;;;;;;;5093609;28;20478;-79
2022/09/29 10:45:28;;;;;;;26.90;24.70;;;;;;;;;;5094545;28;20446;-79
2022/09/29 10:48:09;;;;;;;28.10;26.23;;;;;;;;;;5094521;28;20437;-78
2022/09/29 10:50:38;;;;;;;29.33;26.50;;;;;;;;;;5095120;28;20457;-79
2022/09/29 10:53:07;;;;;;;25.70;24.00;;;;;;;;;;5094063;28;20529;-78
2022/09/29 10:55:35;;;;;;;26.53;24.63;;;;;;;;;;5094818;28;20523;-78
2022/09/29 10:58:06;;;;;;;26.23;24.43;;;;;;;;;;5094741;28;20434;-78
2022/09/29 11:00:36;;;;;;;25.67;23.80;;;;;;;;;;5093645;28;20911;-78
2022/09/29 11:03:06;;;;;;;25.77;24.07;;;;;;;;;;5095129;28;20488;-79
2022/09/29 11:05:34;;;;;;;26.90;25.20;;;;;;;;;;5094488;28;20435;-78
2022/09/29 11:08:02;;;;;;;25.87;24.07;;;;;;;;;;5095449;28;20442;-79
2022/09/29 11:10:30;;;;;;;25.50;23.90;;;;;;;;;;5094286;28;20481;-79
2022/09/29 11:12:59;;;;;;;27.03;25.07;;;;;;;;;;5096456;28;20454;-78
2022/09/29 11:15:30;;;;;;;27.07;25.17;;;;;;;;;;5095289;28;20547;-77
2022/09/29 11:17:57;;;;;;;24.70;23.37;;;;;;;;;;5098636;28;20408;-79
2022/09/29 11:20:30;;;;;;;26.47;24.60;;;;;;;;;;5093292;28;20473;-78
2022/09/29 11:23:05;;;;;;;25.53;23.93;;;;;;;;;;5094231;28;20550;-78
2022/09/29 11:25:47;;;;;;;26.50;24.77;;;;;;;;;;5096042;28;20424;-79
2022/09/29 11:28:35;;;;;;;27.37;25.20;;;;;;;;;;5094495;28;20433;-79
2022/09/29 11:31:10;;;;;;;26.83;25.13;;;;;;;;;;5087130;28;20442;-79
2022/09/29 11:33:42;;;;;;;25.20;23.70;;;;;;;;;;5074642;28;20446;-80
2022/09/29 11:36:13;;;;;;;25.50;23.63;;;;;;;;;;5078403;28;20425;-80
2022/09/29 11:38:51;;;;;;;25.23;23.83;;;;;;;;;;5079177;28;20753;-81
2022/09/29 11:41:26;;;;;;;24.70;23.30;;;;;;;;;;5079452;28;20457;-80
2022/09/29 11:43:55;;;;;;;26.07;24.37;;;;;;;;;;5080408;28;20444;-80
2022/09/29 11:46:30;;;;;;;26.60;24.77;;;;;;;;;;5078483;28;20800;-80
2022/09/29 11:49:04;;;;;;;25.80;24.20;;;;;;;;;;5077882;28;20464;-79
2022/09/29 11:51:37;;;;;;;25.80;23.93;;;;;;;;;;5077897;28;20426;-79
2022/09/29 11:54:13;;;;;;;25.70;24.20;;;;;;;;;;5076927;28;20497;-80
2022/09/29 11:56:46;;;;;;;27.57;25.97;;;;;;;;;;5077741;28;20468;-79
2022/09/29 11:59:22;;;;;;;25.93;24.33;;;;;;;;;;5078346;28;20452;-80
2022/09/29 12:01:58;;;;;;;26.80;25.13;;;;;;;;;;5077909;28;20494;-79
2022/09/29 12:04:33;;;;;;;25.53;24.13;;;;;;;;;;5078907;28;20445;-80
2022/09/29 12:07:05;;;;;;;26.10;24.57;;;;;;;;;;5078213;28;20458;-80
2022/09/29 12:09:45;;;;;;;25.43;24.03;;;;;;;;;;5083203;28;20927;-80
2022/09/29 12:12:18;;;;;;;28.93;26.83;;;;;;;;;;5084982;28;20507;-79
2022/09/29 12:14:53;;;;;;;26.43;24.83;;;;;;;;;;5085270;28;20409;-79
2022/09/29 12:17:24;;;;;;;27.07;25.40;;;;;;;;;;5087040;28;20403;-80
2022/09/29 12:19:54;;;;;;;27.33;25.70;;;;;;;;;;5086656;28;20430;-80
2022/09/29 12:22:21;;;;;;;26.50;25.00;;;;;;;;;;5080673;28;20496;-80
2022/09/29 12:24:51;;;;;;;26.27;24.57;;;;;;;;;;5081091;28;20472;-80
2022/09/29 12:27:20;;;;;;;27.87;26.20;;;;;;;;;;5081234;28;20465;-81
2022/09/29 12:29:51;;;;;;;26.07;24.60;;;;;;;;;;5082107;28;20457;-80
2022/09/29 12:32:22;;;;;;;28.23;26.40;;;;;;;;;;5081327;28;20472;-79
2022/09/29 12:34:52;;;;;;;27.63;26.03;;;;;;;;;;5082431;28;20441;-80
2022/09/29 12:37:24;;;;;;;28.00;26.13;;;;;;;;;;5081355;28;20973;-79
2022/09/29 12:39:58;;;;;;;26.07;24.57;;;;;;;;;;5078879;28;20474;-77
2022/09/29 12:42:43;;;;;;;25.10;23.80;;;;;;;;;;5080489;28;20488;-82
2022/09/29 12:45:15;;;;;;;27.60;25.43;;;;;;;;;;5077614;28;20457;-79
2022/09/29 12:47:47;;;;;;;26.10;24.60;;;;;;;;;;5098465;28;20437;-79
2022/09/29 12:50:18;;;;;;;26.60;25.00;;;;;;;;;;5098758;28;20403;-76
2022/09/29 12:52:50;;;;;;;28.17;26.47;;;;;;;;;;5097608;28;20451;-79
2022/09/29 12:55:19;;;;;;;27.37;25.77;;;;;;;;;;5096804;28;20402;-77
2022/09/29 12:57:48;;;;;;;27.33;25.63;;;;;;;;;;5099156;28;20481;-82
2022/09/29 13:00:17;;;;;;;28.77;26.60;;;;;;;;;;5101948;28;20446;-80
2022/09/29 13:03:05;;;;;;;26.13;24.43;;;;;;;;;;5098767;28;20512;-79
2022/09/29 13:05:46;;;;;;;25.80;24.30;;;;;;;;;;5096945;28;20424;-79
2022/09/29 13:08:29;;;;;;;28.67;26.07;;;;;;;;;;5101243;28;20963;-81
2022/09/29 13:11:03;;;;;;;26.57;24.97;;;;;;;;;;5099992;28;20453;-78
2022/09/29 13:13:46;;;;;;;26.90;25.17;;;;;;;;;;5097333;28;21222;-77
2022/09/29 13:16:20;;;;;;;29.07;26.50;;;;;;;;;;5096537;28;20418;-77
2022/09/29 13:18:59;;;;;;;26.03;24.17;;;;;;;;;;5096298;28;20432;-77
2022/09/29 13:21:33;;;;;;;27.10;25.40;;;;;;;;;;5095749;28;20415;-77
2022/09/29 13:24:13;;;;;;;24.63;23.23;;;;;;;;;;5097813;28;20464;-77
2022/09/29 13:26:52;;;;;;;26.00;24.30;;;;;;;;;;5096273;28;20425;-77
2022/09/29 13:29:21;;;;;;;26.67;24.90;;;;;;;;;;5096038;28;20764;-78
2022/09/29 13:31:49;;;;;;;27.80;26.20;;;;;;;;;;5095601;28;20455;-77
2022/09/29 13:34:22;;;;;;;26.97;25.30;;;;;;;;;;5095967;28;20496;-77
2022/09/29 13:36:52;;;;;;;25.97;24.37;;;;;;;;;;5095761;28;20432;-77
2022/09/29 13:39:22;;;;;;;26.60;24.90;;;;;;;;;;5095417;28;20937;-77
2022/09/29 13:41:49;;;;;;;25.73;23.97;;;;;;;;;;5094960;28;20426;-78
2022/09/29 13:44:24;;;;;;;25.53;24.03;;;;;;;;;;5095005;28;20479;-78
2022/09/29 13:46:53;;;;;;;25.60;24.03;;;;;;;;;;5095306;28;20448;-77
2022/09/29 13:49:25;;;;;;;25.20;23.60;;;;;;;;;;5095540;28;20449;-77
2022/09/29 13:51:54;;;;;;;25.60;23.90;;;;;;;;;;5095404;28;20854;-78
2022/09/29 13:54:26;;;;;;;25.90;24.30;;;;;;;;;;5095637;28;20525;-76
2022/09/29 13:57:00;;;;;;;25.37;23.87;;;;;;;;;;5099135;28;20465;-77
2022/09/29 13:59:28;;;;;;;25.83;23.93;;;;;;;;;;5098153;28;20438;-83
2022/09/29 14:01:56;;;;;;;24.80;23.17;;;;;;;;;;5094813;28;20935;-79
2022/09/29 14:04:38;;;;;;;26.40;24.30;;;;;;;;;;5095348;28;20453;-78
2022/09/29 14:07:08;;;;;;;23.93;22.43;;;;;;;;;;5093355;28;20940;-79
2022/09/29 14:09:36;;;;;;;25.47;23.90;;;;;;;;;;5095354;28;20473;-79
2022/09/29 14:12:07;;;;;;;24.90;23.40;;;;;;;;;;5094933;28;20575;-79
2022/09/29 14:14:36;;;;;;;26.50;24.70;;;;;;;;;;5095487;28;20400;-78
2022/09/29 14:17:05;;;;;;;24.57;23.03;;;;;;;;;;5095001;28;20445;-78
2022/09/29 14:19:37;;;;;;;25.77;24.17;;;;;;;;;;5094898;28;20453;-78
2022/09/29 14:22:26;;;;;;;25.80;24.20;;;;;;;;;;5094730;28;20448;-79
2022/09/29 14:24:54;;;;;;;24.03;22.53;;;;;;;;;;5094855;28;20453;-79
2022/09/29 14:27:29;;;;;;;24.10;22.57;;;;;;;;;;5095340;28;20456;-78
2022/09/29 14:29:58;;;;;;;23.00;21.60;;;;;;;;;;5097587;28;20485;-78
2022/09/29 14:32:31;;;;;;;24.27;22.67;;;;;;;;;;5096296;28;20466;-79